Time;durP1;ratioP1;P1;durP2;ratioP2;P2;SDS_P1;SDS_P2;PMS_P1;PMS_P2;Temp;Humidity;BMP_temperature;BMP_pressure;BME280_temperature;BME280_humidity;BME280_pressure;Samples;Min_cycle;Max_cycle;Signal;HPM_P1;HPM_P2
2022/09/15 00:01:30;;;;;;;1999.90;999.90;;;13.70;99.90;;;;;;5095536;28;20047;-66
2022/09/15 00:03:55;;;;;;;1999.90;999.90;;;13.70;99.90;;;;;;5088258;28;20047;-65
2022/09/15 00:06:21;;;;;;;1999.90;999.90;;;13.80;99.90;;;;;;5091421;28;20036;-65
2022/09/15 00:08:46;;;;;;;1999.90;999.90;;;13.90;99.90;;;;;;5072424;28;20079;-65
2022/09/15 00:11:21;;;;;;;1999.90;999.90;;;14.00;99.90;;;;;;5082286;28;20041;-65
2022/09/15 00:13:48;;;;;;;1999.90;999.90;;;14.10;99.90;;;;;;5096628;28;20050;-65
2022/09/15 00:16:15;;;;;;;1999.90;999.90;;;14.10;99.90;;;;;;5070092;28;20040;-65
2022/09/15 00:18:42;;;;;;;1999.90;999.90;;;14.20;99.90;;;;;;5068340;28;20044;-66
2022/09/15 00:21:15;;;;;;;1999.90;999.90;;;14.20;99.90;;;;;;5089172;28;20058;-65
2022/09/15 00:23:41;;;;;;;1999.90;999.90;;;14.20;99.90;;;;;;5049748;28;20055;-66
2022/09/15 00:26:09;;;;;;;1999.90;999.90;;;14.20;99.90;;;;;;5090406;28;20032;-66
2022/09/15 00:28:36;;;;;;;1999.90;999.90;;;14.30;99.90;;;;;;5091351;28;20043;-66
2022/09/15 00:31:05;;;;;;;1999.90;999.90;;;14.30;99.90;;;;;;5091241;28;20048;-66
2022/09/15 00:33:31;;;;;;;1999.90;999.90;;;14.30;99.90;;;;;;5090372;28;20419;-65
2022/09/15 00:36:01;;;;;;;1999.90;999.90;;;14.30;99.90;;;;;;5090009;28;20032;-66
2022/09/15 00:38:26;;;;;;;1999.90;999.90;;;14.30;99.90;;;;;;5086720;28;20042;-65
2022/09/15 00:40:54;;;;;;;1999.90;999.90;;;14.30;99.90;;;;;;5073875;28;20131;-66
2022/09/15 00:43:41;;;;;;;1999.90;999.90;;;14.30;99.90;;;;;;5054521;28;20051;-66
2022/09/15 00:46:08;;;;;;;1999.90;999.90;;;14.30;99.90;;;;;;5082325;28;20050;-65
2022/09/15 00:48:36;;;;;;;1999.90;999.90;;;14.30;99.90;;;;;;5054778;28;20051;-66
2022/09/15 00:51:03;;;;;;;1999.90;999.90;;;14.30;99.90;;;;;;5085268;28;20071;-65
2022/09/15 00:53:31;;;;;;;1999.90;999.90;;;14.30;99.90;;;;;;5051882;28;20123;-65
2022/09/15 00:55:58;;;;;;;1999.90;999.90;;;14.30;99.90;;;;;;5053620;28;20047;-65
2022/09/15 00:58:29;;;;;;;1999.90;999.90;;;14.30;99.90;;;;;;5070466;28;20651;-66
2022/09/15 01:01:02;;;;;;;1999.90;999.90;;;14.30;99.90;;;;;;5071581;28;20534;-65
2022/09/15 01:03:31;;;;;;;1999.90;999.90;;;14.30;99.90;;;;;;5070228;28;20059;-66
2022/09/15 01:06:22;;;;;;;1999.90;999.90;;;14.30;99.90;;;;;;5076724;28;20182;-66
2022/09/15 01:08:56;;;;;;;1999.90;999.90;;;14.20;99.90;;;;;;5057097;28;20044;-65
2022/09/15 01:11:22;;;;;;;1999.90;999.90;;;14.20;99.90;;;;;;5052053;28;20105;-65
2022/09/15 01:13:48;;;;;;;1999.90;999.90;;;14.20;99.90;;;;;;5088213;28;20369;-65
2022/09/15 01:16:32;;;;;;;1999.90;999.90;;;14.10;99.90;;;;;;5060047;28;20067;-66
2022/09/15 01:19:43;;;;;;;1999.90;999.90;;;14.10;99.90;;;;;;5085249;28;20115;-66
2022/09/15 01:22:40;;;;;;;1999.90;999.90;;;14.10;99.90;;;;;;5081488;28;20507;-66
2022/09/15 01:25:43;;;;;;;1999.90;999.90;;;14.00;99.90;;;;;;5064702;28;20044;-65
2022/09/15 01:28:29;;;;;;;;;;;13.90;99.90;;;;;;5085505;28;20036;-66
2022/09/15 01:31:28;;;;;;;1999.90;999.90;;;13.90;99.90;;;;;;5091129;28;20353;-65
2022/09/15 01:34:20;;;;;;;1999.90;999.90;;;13.80;99.90;;;;;;5096229;28;20050;-66
2022/09/15 01:36:56;;;;;;;1999.90;999.90;;;13.70;99.90;;;;;;5086194;28;20063;-66
2022/09/15 01:39:29;;;;;;;1999.90;999.90;;;13.70;99.90;;;;;;5090034;28;20170;-66
2022/09/15 01:41:57;;;;;;;;;;;13.60;99.90;;;;;;5053989;28;20040;-65
2022/09/15 01:44:33;;;;;;;1999.90;999.90;;;13.70;99.90;;;;;;5062619;28;20058;-65
2022/09/15 01:47:02;;;;;;;1999.90;999.90;;;13.70;99.90;;;;;;5070504;28;20048;-65
2022/09/15 01:49:41;;;;;;;1999.90;999.90;;;13.70;99.90;;;;;;5070102;28;20048;-65
2022/09/15 01:52:07;;;;;;;1999.90;999.90;;;13.70;99.90;;;;;;5048523;28;20074;-65
2022/09/15 01:54:40;;;;;;;1999.90;999.90;;;13.60;99.90;;;;;;5096892;28;20575;-65
2022/09/15 01:57:06;;;;;;;1999.90;999.90;;;13.60;99.90;;;;;;5056109;28;20044;-65
2022/09/15 01:59:33;;;;;;;1999.90;999.90;;;13.70;99.90;;;;;;5068296;28;20044;-65
2022/09/15 02:02:06;;;;;;;1999.90;999.90;;;13.80;99.90;;;;;;5068900;28;20123;-65
2022/09/15 02:04:50;;;;;;;1999.90;999.90;;;13.90;99.90;;;;;;5093824;28;20100;-65
2022/09/15 02:07:19;;;;;;;1999.90;999.90;;;14.00;99.90;;;;;;5084705;28;20082;-65
2022/09/15 02:10:10;;;;;;;1999.90;999.90;;;14.10;99.90;;;;;;5061404;28;20047;-65
2022/09/15 02:13:05;;;;;;;1999.90;999.90;;;14.20;99.90;;;;;;5075342;28;20047;-65
2022/09/15 02:15:37;;;;;;;1999.90;999.90;;;14.20;99.90;;;;;;5083652;28;20050;-65
2022/09/15 02:18:07;;;;;;;1999.90;999.90;;;14.20;99.90;;;;;;5062761;28;20051;-65
2022/09/15 02:20:37;;;;;;;1999.90;999.90;;;14.20;99.90;;;;;;5090332;28;20298;-65
2022/09/15 02:23:11;;;;;;;1999.90;999.90;;;14.20;99.90;;;;;;5053951;28;20395;-65
2022/09/15 02:25:43;;;;;;;1999.90;999.90;;;14.20;99.90;;;;;;5066742;28;20040;-65
2022/09/15 02:28:12;;;;;;;1999.90;999.90;;;14.20;99.90;;;;;;5089548;28;20047;-65
2022/09/15 02:30:41;;;;;;;1999.90;999.90;;;14.20;99.90;;;;;;5092110;28;20032;-65
2022/09/15 02:33:13;;;;;;;1999.90;999.90;;;14.20;99.90;;;;;;5087440;28;20054;-65
2022/09/15 02:35:39;;;;;;;1999.90;999.90;;;14.20;99.90;;;;;;5083154;28;20045;-65
2022/09/15 02:38:08;;;;;;;1999.90;999.90;;;14.20;99.90;;;;;;5070134;28;20040;-65
2022/09/15 02:40:34;;;;;;;1999.90;999.90;;;14.20;99.90;;;;;;5077572;28;20044;-65
2022/09/15 02:43:02;;;;;;;1999.90;999.90;;;14.20;99.90;;;;;;5088747;28;20044;-65
2022/09/15 02:45:30;;;;;;;1999.90;999.90;;;14.20;99.90;;;;;;5090030;28;20412;-65
2022/09/15 02:47:58;;;;;;;1999.90;999.90;;;14.20;99.90;;;;;;5095004;28;20111;-65
2022/09/15 02:50:25;;;;;;;1999.90;999.90;;;14.20;99.90;;;;;;5081987;28;20033;-65
2022/09/15 02:52:52;;;;;;;1999.90;999.90;;;14.10;99.90;;;;;;5084197;28;20086;-65
2022/09/15 02:55:18;;;;;;;1999.90;999.90;;;14.10;99.90;;;;;;5081917;28;20039;-65
2022/09/15 02:57:44;;;;;;;1999.90;999.90;;;14.10;99.90;;;;;;5078021;28;20031;-65
2022/09/15 03:00:13;;;;;;;1999.90;999.90;;;14.10;99.90;;;;;;5095426;28;20040;-65
2022/09/15 03:02:40;;;;;;;1999.90;999.90;;;14.20;99.90;;;;;;5068942;28;20069;-65
2022/09/15 03:05:07;;;;;;;1999.90;999.90;;;14.20;99.90;;;;;;5071272;28;20050;-65
2022/09/15 03:07:33;;;;;;;1999.90;999.90;;;14.10;99.90;;;;;;5077818;28;20079;-65
2022/09/15 03:09:58;;;;;;;1999.90;999.90;;;14.10;99.90;;;;;;5073354;28;20144;-65
2022/09/15 03:12:25;;;;;;;1999.90;999.90;;;14.10;99.90;;;;;;5091130;28;20028;-65
2022/09/15 03:14:51;;;;;;;1999.90;999.90;;;14.10;99.90;;;;;;5083824;28;20097;-65
2022/09/15 03:17:17;;;;;;;1999.90;999.90;;;14.20;99.90;;;;;;5086635;28;20078;-65
2022/09/15 03:19:43;;;;;;;1999.90;999.90;;;14.10;99.90;;;;;;5105271;28;20121;-65
2022/09/15 03:22:09;;;;;;;1999.90;999.90;;;14.10;99.90;;;;;;5091603;28;20502;-65
2022/09/15 03:24:35;;;;;;;1999.90;999.90;;;14.10;99.90;;;;;;5072873;28;20063;-65
2022/09/15 03:27:01;;;;;;;1999.90;999.90;;;14.10;99.90;;;;;;5069238;28;20051;-65
2022/09/15 03:29:27;;;;;;;1999.90;999.90;;;14.10;99.90;;;;;;5093280;28;20039;-65
2022/09/15 03:31:53;;;;;;;1999.90;999.90;;;14.10;99.90;;;;;;5078794;28;20420;-65
2022/09/15 03:34:19;;;;;;;1999.90;999.90;;;14.10;99.90;;;;;;5083467;28;20051;-65
2022/09/15 03:36:44;;;;;;;1999.90;999.90;;;14.10;99.90;;;;;;5058496;28;20085;-65
2022/09/15 03:39:13;;;;;;;1999.90;999.90;;;14.10;99.90;;;;;;5088616;28;20039;-65
2022/09/15 03:41:39;;;;;;;1999.90;999.90;;;14.00;99.90;;;;;;5087489;28;20090;-65
2022/09/15 03:44:04;;;;;;;1999.90;999.90;;;14.00;99.90;;;;;;5093709;28;20507;-65
2022/09/15 03:46:30;;;;;;;1999.90;999.90;;;14.10;99.90;;;;;;5091148;28;20043;-65
2022/09/15 03:48:56;;;;;;;1999.90;999.90;;;14.10;99.90;;;;;;5067419;28;20114;-65
2022/09/15 03:51:22;;;;;;;1999.90;999.90;;;14.10;99.90;;;;;;5091248;28;20054;-65
2022/09/15 03:53:48;;;;;;;1999.90;999.90;;;14.10;99.90;;;;;;5089681;28;20107;-65
2022/09/15 03:56:30;;;;;;;1999.90;999.90;;;14.10;99.90;;;;;;5056499;28;20165;-65
2022/09/15 03:58:57;;;;;;;1999.90;999.90;;;14.10;99.90;;;;;;5073915;28;20161;-65
2022/09/15 04:01:24;;;;;;;1999.90;999.90;;;14.10;99.90;;;;;;5090814;28;20495;-65
2022/09/15 04:03:50;;;;;;;1999.90;999.90;;;14.00;99.90;;;;;;5067208;28;20052;-65
2022/09/15 04:06:16;;;;;;;1999.90;999.90;;;14.00;99.90;;;;;;5082492;28;20511;-65
2022/09/15 04:08:41;;;;;;;1999.90;999.90;;;14.00;99.90;;;;;;5084615;28;20082;-65
2022/09/15 04:11:09;;;;;;;1999.90;999.90;;;13.90;99.90;;;;;;5058331;28;20749;-65
2022/09/15 04:13:36;;;;;;;1999.90;999.90;;;13.80;99.90;;;;;;5067169;28;20040;-65
2022/09/15 04:16:04;;;;;;;1999.90;999.90;;;13.80;99.90;;;;;;5067272;28;20044;-65
2022/09/15 04:18:32;;;;;;;1999.90;999.90;;;13.80;99.90;;;;;;5090449;28;20045;-65
2022/09/15 04:21:15;;;;;;;1999.90;999.90;;;13.70;99.90;;;;;;5069085;28;20047;-65
2022/09/15 04:23:42;;;;;;;1999.90;999.90;;;13.70;99.90;;;;;;5074217;28;20055;-65
2022/09/15 04:26:13;;;;;;;1999.90;999.90;;;13.70;99.90;;;;;;5085948;28;20118;-65
2022/09/15 04:28:38;;;;;;;1999.90;999.90;;;13.70;99.90;;;;;;5094976;28;20043;-65
2022/09/15 04:31:09;;;;;;;1999.90;999.90;;;13.70;99.90;;;;;;5071252;28;20051;-65
2022/09/15 04:33:36;;;;;;;1999.90;999.90;;;13.70;99.90;;;;;;5071843;28;20391;-65
2022/09/15 04:36:06;;;;;;;1999.90;999.90;;;13.80;99.90;;;;;;5089679;28;20119;-65
2022/09/15 04:38:32;;;;;;;1999.90;999.90;;;13.80;99.90;;;;;;5090230;28;20048;-65
2022/09/15 04:40:58;;;;;;;1999.90;999.90;;;13.80;99.90;;;;;;5086305;28;20055;-65
2022/09/15 04:43:25;;;;;;;1999.90;999.90;;;13.80;99.90;;;;;;5087610;28;20051;-65
2022/09/15 04:45:51;;;;;;;1999.90;999.90;;;13.80;99.90;;;;;;5090025;28;20048;-65
2022/09/15 04:48:17;;;;;;;1999.90;999.90;;;13.80;99.90;;;;;;5071228;28;20403;-65
2022/09/15 04:50:42;;;;;;;1999.90;999.90;;;13.90;99.90;;;;;;5089307;28;20040;-65
2022/09/15 04:53:08;;;;;;;1999.90;999.90;;;13.90;99.90;;;;;;5075743;28;20092;-65
2022/09/15 04:55:34;;;;;;;1999.90;999.90;;;13.90;99.90;;;;;;5071866;28;20040;-65
2022/09/15 04:58:01;;;;;;;1999.90;999.90;;;13.80;99.90;;;;;;5070923;28;20043;-65
2022/09/15 05:00:28;;;;;;;1999.90;999.90;;;13.80;99.90;;;;;;5084638;28;20055;-65
2022/09/15 05:02:53;;;;;;;1999.90;999.90;;;13.80;99.90;;;;;;5073006;28;20047;-65
2022/09/15 05:05:19;;;;;;;1999.90;999.90;;;13.80;99.90;;;;;;5056519;28;20491;-65
2022/09/15 05:07:46;;;;;;;1999.90;999.90;;;13.70;99.90;;;;;;5056730;28;20040;-65
2022/09/15 05:10:13;;;;;;;1999.90;999.90;;;13.70;99.90;;;;;;5093084;28;20048;-65
2022/09/15 05:12:38;;;;;;;1999.90;999.90;;;13.70;99.90;;;;;;5087831;28;20040;-65
2022/09/15 05:15:05;;;;;;;1999.90;999.90;;;13.60;99.90;;;;;;5069651;28;20055;-65
2022/09/15 05:17:31;;;;;;;1999.90;999.90;;;13.50;99.90;;;;;;5053326;28;20075;-65
2022/09/15 05:19:58;;;;;;;1999.90;999.90;;;13.40;99.90;;;;;;5076665;28;20089;-65
2022/09/15 05:22:24;;;;;;;1999.90;999.90;;;13.30;99.90;;;;;;5089853;28;20031;-65
2022/09/15 05:24:49;;;;;;;1999.90;999.90;;;13.30;99.90;;;;;;5089169;28;20036;-65
2022/09/15 05:27:15;;;;;;;1999.90;999.90;;;13.20;99.90;;;;;;5069704;28;20503;-65
2022/09/15 05:29:41;;;;;;;1999.90;999.90;;;13.20;99.90;;;;;;5071295;28;20136;-65
2022/09/15 05:32:07;;;;;;;1999.90;999.90;;;13.00;99.90;;;;;;5049581;28;20063;-65
2022/09/15 05:34:32;;;;;;;1999.90;999.90;;;13.00;99.90;;;;;;5085761;28;20404;-65
2022/09/15 05:36:58;;;;;;;1999.90;999.90;;;12.90;99.90;;;;;;5075305;28;20124;-64
2022/09/15 05:39:23;;;;;;;1999.90;999.90;;;12.90;99.90;;;;;;5069859;28;20032;-65
2022/09/15 05:41:49;;;;;;;1999.90;999.90;;;12.80;99.90;;;;;;5076725;28;20048;-65
2022/09/15 05:44:14;;;;;;;1999.90;999.90;;;12.80;99.90;;;;;;5086548;28;20631;-65
2022/09/15 05:46:40;;;;;;;1999.90;999.90;;;12.80;99.90;;;;;;5088016;28;20035;-65
2022/09/15 05:49:07;;;;;;;1999.90;999.90;;;12.70;99.90;;;;;;5085381;28;20044;-65
2022/09/15 05:51:33;;;;;;;1999.90;999.90;;;12.70;99.90;;;;;;5080782;28;20433;-65
2022/09/15 05:53:59;;;;;;;1999.90;999.90;;;12.80;99.90;;;;;;5066529;28;20044;-65
2022/09/15 05:56:25;;;;;;;1999.90;999.90;;;12.80;99.90;;;;;;5084611;28;20039;-65
2022/09/15 05:58:51;;;;;;;1999.90;999.90;;;12.90;99.90;;;;;;5066062;28;20484;-65
2022/09/15 06:01:22;;;;;;;1999.90;999.90;;;13.00;99.90;;;;;;5063104;28;20051;-65
2022/09/15 06:03:48;;;;;;;1999.90;999.90;;;13.10;99.90;;;;;;5065616;28;20047;-65
2022/09/15 06:06:14;;;;;;;1999.90;999.90;;;13.20;99.90;;;;;;5063761;28;20043;-65
2022/09/15 06:08:45;;;;;;;1999.90;999.90;;;13.20;99.90;;;;;;5038689;28;20117;-64
2022/09/15 06:11:19;;;;;;;1999.90;999.90;;;13.30;99.90;;;;;;5081038;28;20032;-65
2022/09/15 06:13:46;;;;;;;1999.90;999.90;;;13.40;99.90;;;;;;5064109;28;20116;-65
2022/09/15 06:16:14;;;;;;;1999.90;999.90;;;13.50;99.90;;;;;;5084235;28;20090;-65
2022/09/15 06:18:40;;;;;;;1999.90;999.90;;;13.60;99.90;;;;;;5075184;28;20451;-65
2022/09/15 06:21:08;;;;;;;1999.90;999.90;;;13.70;99.90;;;;;;5084467;28;20046;-65
2022/09/15 06:23:35;;;;;;;1999.90;999.90;;;13.80;99.90;;;;;;5068333;28;20048;-65
2022/09/15 06:26:10;;;;;;;1999.90;999.90;;;13.90;99.90;;;;;;5070240;28;20093;-65
2022/09/15 06:28:36;;;;;;;1999.90;999.90;;;14.00;99.90;;;;;;5068606;28;20846;-65
2022/09/15 06:31:02;;;;;;;1999.90;999.90;;;14.10;99.90;;;;;;5076808;28;20703;-65
2022/09/15 06:33:28;;;;;;;1999.90;999.90;;;14.20;99.90;;;;;;5055224;28;20044;-65
2022/09/15 06:35:54;;;;;;;1999.90;999.90;;;14.30;99.90;;;;;;5079994;28;20103;-65
2022/09/15 06:38:19;;;;;;;1999.90;999.90;;;14.40;99.90;;;;;;5068949;28;20472;-65
2022/09/15 06:40:54;;;;;;;1999.90;999.90;;;14.40;99.90;;;;;;5083939;28;20040;-65
2022/09/15 06:43:19;;;;;;;1999.90;999.90;;;14.50;99.90;;;;;;5071714;28;20372;-65
2022/09/15 06:45:45;;;;;;;1999.90;999.90;;;14.60;99.90;;;;;;5078603;28;20055;-65
2022/09/15 06:48:10;;;;;;;1999.90;999.90;;;14.70;99.90;;;;;;5068729;28;20041;-65
2022/09/15 06:50:36;;;;;;;1999.90;999.90;;;14.80;99.90;;;;;;5061829;28;20047;-65
2022/09/15 06:53:01;;;;;;;1999.90;999.90;;;14.80;99.90;;;;;;5046268;28;20044;-65
2022/09/15 06:55:27;;;;;;;1999.90;999.90;;;14.90;99.90;;;;;;5084824;28;20045;-65
2022/09/15 06:57:53;;;;;;;1999.90;999.90;;;14.90;99.90;;;;;;5074376;28;20036;-65
2022/09/15 07:00:19;;;;;;;1999.90;999.90;;;14.90;99.90;;;;;;5084827;28;20091;-65
2022/09/15 07:02:48;;;;;;;1999.90;999.90;;;15.00;99.90;;;;;;5083269;28;20089;-65
2022/09/15 07:05:14;;;;;;;1999.90;999.90;;;15.00;99.90;;;;;;5087879;28;20040;-65
2022/09/15 07:07:39;;;;;;;1999.90;999.90;;;15.10;99.90;;;;;;5089136;28;20089;-65
2022/09/15 07:10:05;;;;;;;1999.90;999.90;;;15.20;99.90;;;;;;5089393;28;20072;-65
2022/09/15 07:12:31;;;;;;;1999.90;999.90;;;15.20;99.90;;;;;;5057620;28;20621;-65
2022/09/15 07:14:57;;;;;;;1999.90;999.90;;;15.30;99.90;;;;;;5073653;28;20043;-65
2022/09/15 07:17:22;;;;;;;1999.90;999.90;;;15.30;99.90;;;;;;5085609;28;20456;-65
2022/09/15 07:19:48;;;;;;;1999.90;999.90;;;15.40;99.90;;;;;;5060790;28;20495;-65
2022/09/15 07:22:14;;;;;;;1999.90;999.90;;;15.50;99.90;;;;;;5087889;28;20605;-65
2022/09/15 07:24:39;;;;;;;1999.90;999.90;;;15.50;99.90;;;;;;5056286;28;20044;-65
2022/09/15 07:27:07;;;;;;;1999.90;999.90;;;15.60;99.90;;;;;;5090514;28;20557;-65
2022/09/15 07:29:32;;;;;;;1999.90;999.90;;;15.60;99.90;;;;;;5066440;28;20055;-65
2022/09/15 07:31:58;;;;;;;1999.90;999.90;;;15.70;99.90;;;;;;5069690;28;20439;-65
2022/09/15 07:34:23;;;;;;;1999.90;999.90;;;15.80;99.90;;;;;;5090460;28;20044;-65
2022/09/15 07:36:49;;;;;;;1999.90;999.90;;;15.90;99.90;;;;;;5087876;28;20040;-65
2022/09/15 07:39:15;;;;;;;1999.90;999.90;;;16.10;99.90;;;;;;5066095;28;20131;-65
2022/09/15 07:41:40;;;;;;;1999.90;999.90;;;16.20;99.90;;;;;;5056138;28;20126;-65
2022/09/15 07:44:06;;;;;;;1999.90;999.90;;;16.30;99.90;;;;;;5068552;28;20412;-65
2022/09/15 07:46:33;;;;;;;1999.90;999.90;;;16.40;99.90;;;;;;5088893;28;20035;-65
2022/09/15 07:49:01;;;;;;;1999.90;999.90;;;16.40;99.90;;;;;;5086025;28;20044;-65
2022/09/15 07:51:27;;;;;;;1999.90;999.90;;;16.50;99.90;;;;;;5084967;28;20555;-65
2022/09/15 07:53:53;;;;;;;1999.90;999.90;;;16.50;99.90;;;;;;5070273;28;20174;-65
2022/09/15 07:56:19;;;;;;;1999.90;999.90;;;16.40;99.90;;;;;;5071993;28;20062;-65
2022/09/15 07:58:46;;;;;;;1999.90;999.90;;;16.30;99.90;;;;;;5070746;28;20051;-65
2022/09/15 08:01:15;;;;;;;1999.90;999.90;;;16.30;99.90;;;;;;5089346;28;20051;-65
2022/09/15 08:03:42;;;;;;;1999.90;999.90;;;16.20;99.90;;;;;;5087883;28;20377;-65
2022/09/15 08:06:08;;;;;;;1999.90;999.90;;;16.20;99.90;;;;;;5082196;28;20040;-65
2022/09/15 08:08:35;;;;;;;1999.90;999.90;;;16.20;99.90;;;;;;5049228;28;20796;-65
2022/09/15 08:11:05;;;;;;;1999.90;999.90;;;16.30;99.90;;;;;;5071723;28;20667;-65
2022/09/15 08:13:31;;;;;;;1999.90;999.90;;;16.50;99.90;;;;;;5081092;28;20052;-65
2022/09/15 08:16:07;;;;;;;1999.90;999.90;;;16.70;99.90;;;;;;5083050;28;20488;-65
2022/09/15 08:18:33;;;;;;;1999.90;999.90;;;16.80;99.90;;;;;;5064041;28;20039;-65
2022/09/15 08:21:02;;;;;;;1999.90;999.90;;;17.00;99.90;;;;;;5093277;28;20109;-65
2022/09/15 08:23:27;;;;;;;1999.90;999.90;;;17.30;99.90;;;;;;5072120;28;20138;-65
2022/09/15 08:25:53;;;;;;;1999.90;999.90;;;17.60;99.90;;;;;;5084869;28;20049;-65
2022/09/15 08:28:19;;;;;;;1999.90;999.90;;;17.90;99.90;;;;;;5083555;28;20413;-65
2022/09/15 08:30:44;;;;;;;1999.90;999.90;;;18.00;99.90;;;;;;5073142;28;20403;-65
2022/09/15 08:33:10;;;;;;;1999.90;999.90;;;17.90;99.90;;;;;;5082060;28;20050;-65
2022/09/15 08:35:35;;;;;;;1999.90;999.90;;;17.90;99.90;;;;;;5072416;28;20561;-65
2022/09/15 08:38:01;;;;;;;1999.90;999.90;;;17.80;99.90;;;;;;5066916;28;20050;-65
2022/09/15 08:40:33;;;;;;;1999.90;999.90;;;17.60;99.90;;;;;;5069710;28;20074;-65
2022/09/15 08:43:03;;;;;;;1999.90;999.90;;;17.50;99.90;;;;;;5087013;28;20111;-65
2022/09/15 08:45:42;;;;;;;1999.90;999.90;;;17.40;99.90;;;;;;5061208;28;20105;-65
2022/09/15 08:48:14;;;;;;;1999.90;999.90;;;17.20;99.90;;;;;;5047723;28;20044;-64
2022/09/15 08:50:46;;;;;;;1999.90;999.90;;;16.90;99.90;;;;;;5065637;28;20035;-65
2022/09/15 08:53:22;;;;;;;1999.90;999.90;;;16.80;99.90;;;;;;5060612;28;20040;-65
2022/09/15 08:55:57;;;;;;;1999.90;999.90;;;16.60;99.90;;;;;;5066363;28;20036;-64
2022/09/15 08:58:25;;;;;;;1999.90;999.90;;;16.50;99.90;;;;;;5082153;28;20107;-65
2022/09/15 09:01:04;;;;;;;1999.90;999.90;;;16.40;99.90;;;;;;5064132;28;20048;-65
2022/09/15 09:04:07;;;;;;;1999.90;999.90;;;16.70;99.90;;;;;;5082289;28;20048;-65
2022/09/15 09:07:06;;;;;;;1999.90;999.90;;;17.50;99.90;;;;;;5083078;28;20044;-65
2022/09/15 09:09:39;;;;;;;1999.90;999.90;;;17.80;99.90;;;;;;5068787;28;20055;-65
2022/09/15 09:12:20;;;;;;;1999.90;999.90;;;18.00;99.90;;;;;;5066042;28;20047;-65
2022/09/15 09:15:03;;;;;;;1999.90;999.90;;;18.30;99.90;;;;;;5076725;28;20052;-65
2022/09/15 09:17:50;;;;;;;1999.90;999.90;;;18.90;99.90;;;;;;5077183;28;20403;-65
2022/09/15 09:20:38;;;;;;;1999.90;999.90;;;18.90;99.90;;;;;;5046595;28;20036;-65
2022/09/15 09:23:11;;;;;;;1999.90;999.90;;;18.60;99.90;;;;;;5080890;28;20380;-65
2022/09/15 09:25:37;;;;;;;1999.90;999.90;;;18.30;99.90;;;;;;5081145;28;20114;-65
2022/09/15 09:28:05;;;;;;;1999.90;999.90;;;18.10;99.80;;;;;;5079623;28;20039;-65
2022/09/15 09:30:34;;;;;;;1999.90;999.90;;;17.90;99.60;;;;;;5059887;28;20043;-65
2022/09/15 09:33:29;;;;;;;1999.90;999.90;;;17.70;99.90;;;;;;5064977;28;20118;-65
2022/09/15 09:36:00;;;;;;;1999.90;999.90;;;17.60;99.90;;;;;;5052933;28;20033;-65
2022/09/15 09:38:36;;;;;;;1999.90;999.90;;;17.50;99.90;;;;;;5085416;28;20043;-65
2022/09/15 09:41:07;;;;;;;1999.90;999.90;;;17.40;99.90;;;;;;5063148;28;20119;-65
2022/09/15 09:43:32;;;;;;;1999.90;999.90;;;17.30;99.90;;;;;;5067997;28;20055;-65
2022/09/15 09:45:58;;;;;;;1999.90;999.90;;;17.20;99.90;;;;;;5055479;28;20044;-65
2022/09/15 09:48:26;;;;;;;1999.90;999.90;;;17.10;99.90;;;;;;5067985;28;20040;-65
2022/09/15 09:50:51;;;;;;;1999.90;999.90;;;17.00;99.90;;;;;;5078406;28;20066;-65
2022/09/15 09:53:29;;;;;;;1999.90;999.90;;;17.00;99.90;;;;;;5085865;28;20040;-65
2022/09/15 09:56:11;;;;;;;1999.90;999.90;;;17.00;99.90;;;;;;5071335;28;20032;-65
2022/09/15 09:58:36;;;;;;;1999.90;999.90;;;17.00;99.90;;;;;;5084684;28;20054;-65
2022/09/15 10:01:12;;;;;;;1999.90;999.90;;;17.60;99.90;;;;;;5072024;28;20527;-65
2022/09/15 10:03:40;;;;;;;1999.90;999.90;;;18.50;99.90;;;;;;5080787;28;20048;-64
2022/09/15 10:06:12;;;;;;;1999.90;999.90;;;18.80;99.90;;;;;;5054221;28;20051;-65
2022/09/15 10:08:52;;;;;;;1999.90;999.90;;;18.90;99.90;;;;;;5080245;28;20066;-65
2022/09/15 10:11:18;;;;;;;1999.90;999.90;;;19.10;99.90;;;;;;5075645;28;20032;-65
2022/09/15 10:13:55;;;;;;;1999.90;999.90;;;19.40;99.90;;;;;;5075788;28;20035;-65
2022/09/15 10:16:21;;;;;;;1999.90;999.90;;;19.60;99.90;;;;;;5079869;28;20042;-65
2022/09/15 10:18:49;;;;;;;1999.90;999.90;;;19.80;99.90;;;;;;5070863;28;20048;-65
2022/09/15 10:21:20;;;;;;;1999.90;999.90;;;19.80;99.90;;;;;;5076485;28;20051;-65
2022/09/15 10:23:46;;;;;;;1999.90;999.90;;;20.00;99.90;;;;;;5088384;28;20062;-65
2022/09/15 10:26:28;;;;;;;1999.90;999.90;;;20.10;99.90;;;;;;5068184;28;20036;-65
2022/09/15 10:29:11;;;;;;;1999.90;999.90;;;20.10;99.10;;;;;;5069441;28;20050;-64
2022/09/15 10:31:37;;;;;;;1999.90;999.90;;;19.80;97.90;;;;;;5065377;28;20105;-66
2022/09/15 10:34:29;;;;;;;1999.90;999.90;;;19.10;98.50;;;;;;5058180;28;20044;-65
2022/09/15 10:37:12;;;;;;;1999.90;999.90;;;18.30;99.90;;;;;;5086204;28;20101;-64
2022/09/15 10:39:51;;;;;;;1999.90;999.90;;;17.80;99.90;;;;;;5084492;28;20135;-64
2022/09/15 10:42:23;;;;;;;1999.90;999.90;;;17.40;99.90;;;;;;5076187;28;20040;-64
2022/09/15 10:45:06;;;;;;;1999.90;999.90;;;17.10;99.90;;;;;;5084783;28;20059;-64
2022/09/15 10:47:52;;;;;;;1999.90;999.90;;;17.00;99.90;;;;;;5086833;28;20491;-65
2022/09/15 10:50:46;;;;;;;1999.90;999.90;;;17.00;99.90;;;;;;5062398;28;20036;-64
2022/09/15 10:53:22;;;;;;;1999.90;999.90;;;17.10;99.90;;;;;;5079372;28;20044;-64
2022/09/15 10:55:59;;;;;;;1999.90;999.90;;;17.20;99.90;;;;;;5086024;28;20048;-64
2022/09/15 10:58:55;;;;;;;1999.90;999.90;;;17.40;99.90;;;;;;5079081;28;20464;-65
2022/09/15 11:01:33;;;;;;;1999.90;999.90;;;17.50;99.90;;;;;;5080709;28;20056;-65
2022/09/15 11:04:33;;;;;;;1999.90;999.90;;;17.70;99.90;;;;;;5059051;28;20044;-65
2022/09/15 11:07:34;;;;;;;1999.90;999.90;;;17.90;99.90;;;;;;5075983;28;20559;-65
2022/09/15 11:10:29;;;;;;;1999.90;999.90;;;18.20;99.90;;;;;;5057181;28;20044;-65
2022/09/15 11:13:11;;;;;;;1999.90;999.90;;;18.60;99.90;;;;;;5075410;28;20051;-65
2022/09/15 11:15:48;;;;;;;1999.90;999.90;;;19.10;99.90;;;;;;5041736;28;20040;-65
2022/09/15 11:18:25;;;;;;;1999.90;999.90;;;19.60;99.90;;;;;;5076371;28;20115;-65
2022/09/15 11:21:22;;;;;;;1999.90;999.90;;;19.80;98.30;;;;;;5079868;28;20090;-65
2022/09/15 11:24:21;;;;;;;1999.90;999.90;;;19.70;98.60;;;;;;5063650;28;20385;-66
2022/09/15 11:26:59;;;;;;;1999.90;999.90;;;19.80;98.40;;;;;;5064743;28;20059;-66
2022/09/15 11:29:58;;;;;;;1999.90;999.90;;;20.10;99.10;;;;;;5079761;28;20064;-66
2022/09/15 11:32:29;;;;;;;1999.90;999.90;;;20.30;98.70;;;;;;5068177;28;20051;-65
2022/09/15 11:35:06;;;;;;;1999.90;999.90;;;20.40;97.90;;;;;;5083546;28;20061;-66
2022/09/15 11:37:44;;;;;;;1999.90;999.90;;;20.50;97.90;;;;;;5083186;28;20914;-67
2022/09/15 11:40:36;;;;;;;1999.90;999.90;;;20.60;97.40;;;;;;5055235;28;20338;-65
2022/09/15 11:43:20;;;;;;;1999.90;999.90;;;20.50;96.20;;;;;;5094788;28;20546;-66
2022/09/15 11:45:53;;;;;;;1999.90;999.90;;;20.20;95.70;;;;;;5063706;28;20085;-65
2022/09/15 11:48:27;;;;;;;1999.90;999.90;;;19.90;95.20;;;;;;5087606;28;20089;-66
2022/09/15 11:50:55;;;;;;;1999.90;999.90;;;19.80;95.20;;;;;;5079791;28;20170;-65
2022/09/15 11:53:51;;;;;;;1999.90;999.90;;;19.70;94.60;;;;;;5073054;28;20052;-65
2022/09/15 11:56:25;;;;;;;1999.90;999.90;;;19.70;93.90;;;;;;5056629;28;20746;-66
2022/09/15 11:59:06;;;;;;;1999.90;999.90;;;20.00;95.20;;;;;;5082620;28;20044;-66
2022/09/15 12:02:06;;;;;;;1999.90;999.90;;;20.40;94.90;;;;;;5068797;28;20044;-66
2022/09/15 12:04:38;;;;;;;1999.90;999.90;;;20.70;93.30;;;;;;5052301;28;20067;-66
2022/09/15 12:07:12;;;;;;;1999.90;999.90;;;20.70;93.40;;;;;;5084230;28;20768;-66
2022/09/15 12:09:38;;;;;;;1999.90;999.90;;;20.80;94.20;;;;;;5089708;28;20044;-66
2022/09/15 12:12:18;;;;;;;1999.90;999.90;;;20.90;94.10;;;;;;5095209;28;20047;-66
2022/09/15 12:14:45;;;;;;;1999.90;999.90;;;20.90;93.60;;;;;;5080094;28;20044;-66
2022/09/15 12:17:31;;;;;;;1999.90;999.90;;;20.60;93.80;;;;;;5053408;28;20048;-66
2022/09/15 12:19:56;;;;;;;1999.90;999.90;;;20.10;93.30;;;;;;5063304;28;20137;-65
2022/09/15 12:22:41;;;;;;;1999.90;999.90;;;19.80;94.30;;;;;;5087777;28;20035;-66